Time;durP1;ratioP1;P1;durP2;ratioP2;P2;SDS_P1;SDS_P2;PMS_P1;PMS_P2;Temp;Humidity;BMP_temperature;BMP_pressure;BME280_temperature;BME280_humidity;BME280_pressure;Samples;Min_cycle;Max_cycle;Signal;HPM_P1;HPM_P2
2023/06/25 00:01:28;;;;;;;7.03;4.10;;;;;;;18.59;73.84;92950.38;4771474;30;20047;-77
2023/06/25 00:03:53;;;;;;;6.70;4.00;;;;;;;18.60;74.03;92951.94;4771506;30;20047;-77
2023/06/25 00:06:19;;;;;;;9.43;4.80;;;;;;;18.61;74.09;92954.25;4771381;30;20063;-77
2023/06/25 00:08:45;;;;;;;9.40;4.45;;;;;;;18.60;73.64;92952.72;4771165;30;20099;-77
2023/06/25 00:11:11;;;;;;;8.38;4.00;;;;;;;18.61;73.61;92948.19;4771335;30;20103;-77
2023/06/25 00:13:37;;;;;;;7.28;4.35;;;;;;;18.61;74.28;92948.97;4771729;30;20479;-77
2023/06/25 00:16:03;;;;;;;7.57;4.18;;;;;;;18.61;74.02;92956.16;4769797;30;20046;-77
2023/06/25 00:18:29;;;;;;;7.15;4.13;;;;;;;18.58;74.60;92949.63;4771271;30;20094;-77
2023/06/25 00:20:55;;;;;;;7.57;4.20;;;;;;;18.55;74.78;92952.13;4755784;30;20071;-77
2023/06/25 00:23:21;;;;;;;8.13;4.05;;;;;;;18.54;74.63;92953.25;4771459;30;20036;-77
2023/06/25 00:25:47;;;;;;;8.10;4.45;;;;;;;18.49;74.88;92957.63;4769968;30;20048;-77
2023/06/25 00:28:13;;;;;;;8.30;4.30;;;;;;;18.45;75.54;92956.72;4771245;30;20143;-77
2023/06/25 00:30:38;;;;;;;7.38;4.30;;;;;;;18.43;75.63;92953.63;4771145;30;20078;-76
2023/06/25 00:33:04;;;;;;;7.38;3.95;;;;;;;18.41;75.99;92955.03;4740664;30;20452;-77
2023/06/25 00:36:06;;;;;;;9.95;3.97;;;;;;;18.38;75.68;92948.53;4769505;30;20051;-77
2023/06/25 00:38:37;;;;;;;8.27;4.22;;;;;;;18.36;75.81;92942.75;4723906;30;20423;-77
2023/06/25 00:41:03;;;;;;;7.68;4.20;;;;;;;18.35;76.52;92954.47;4770926;30;20118;-77
2023/06/25 00:43:28;;;;;;;6.95;3.97;;;;;;;18.27;77.62;92956.06;4770923;30;20051;-76
2023/06/25 00:45:54;;;;;;;7.45;3.90;;;;;;;18.26;77.86;92953.72;4754783;30;20044;-77
2023/06/25 00:48:21;;;;;;;7.68;3.92;;;;;;;18.21;78.10;92945.97;4770680;30;20059;-77
2023/06/25 00:50:48;;;;;;;8.55;4.10;;;;;;;18.18;78.03;92949.28;4755525;30;20122;-77
2023/06/25 00:53:15;;;;;;;7.57;3.88;;;;;;;18.15;77.59;92948.06;4754938;30;20118;-77
2023/06/25 00:55:41;;;;;;;9.10;3.22;;;;;;;18.15;77.36;92945.41;4769327;30;20040;-77
2023/06/25 00:58:07;;;;;;;6.35;3.70;;;;;;;18.16;77.56;92948.81;4770950;30;20459;-77
2023/06/25 01:00:34;;;;;;;6.72;3.50;;;;;;;18.16;77.59;92946.19;4770925;30;20071;-78
2023/06/25 01:03:13;;;;;;;8.85;3.53;;;;;;;18.15;77.77;92947.25;4770769;30;20050;-77
2023/06/25 01:05:49;;;;;;;6.38;3.50;;;;;;;18.13;78.13;92954.78;4769070;30;20051;-77
2023/06/25 01:08:16;;;;;;;6.22;3.35;;;;;;;18.09;78.31;92944.03;4770292;30;20063;-77
2023/06/25 01:10:43;;;;;;;6.72;3.33;;;;;;;18.04;78.92;92949.53;4769188;30;20042;-77
2023/06/25 01:13:09;;;;;;;5.88;3.60;;;;;;;17.99;78.98;92950.50;4769275;30;20039;-76
2023/06/25 01:15:35;;;;;;;6.57;3.47;;;;;;;17.96;79.18;92943.16;4770636;30;20545;-77
2023/06/25 01:18:01;;;;;;;10.65;3.55;;;;;;;17.91;79.74;92943.34;4770196;30;20476;-76
2023/06/25 01:20:27;;;;;;;6.35;3.30;;;;;;;17.88;79.51;92944.00;4770416;30;20043;-77
2023/06/25 01:22:55;;;;;;;5.68;3.33;;;;;;;17.87;79.54;92945.84;4770173;30;20123;-77
2023/06/25 01:25:21;;;;;;;6.07;3.35;;;;;;;17.85;79.76;92942.75;4770325;30;20024;-76
2023/06/25 01:27:50;;;;;;;6.65;3.25;;;;;;;17.83;79.97;92941.53;4768584;30;20036;-77
2023/06/25 01:30:17;;;;;;;6.07;3.20;;;;;;;17.81;80.05;92943.69;4770445;30;20059;-76
2023/06/25 01:32:44;;;;;;;5.47;3.17;;;;;;;17.78;79.75;92941.69;4768911;30;20098;-77
2023/06/25 01:35:12;;;;;;;5.78;3.00;;;;;;;17.72;80.65;92940.31;4770123;30;20074;-77
2023/06/25 01:37:37;;;;;;;6.95;3.10;;;;;;;17.65;80.53;92938.94;4769909;30;20086;-77
2023/06/25 01:40:03;;;;;;;6.80;3.03;;;;;;;17.62;80.77;92933.50;4769965;30;20395;-76
2023/06/25 01:42:29;;;;;;;5.63;2.80;;;;;;;17.60;80.41;92928.53;4768801;30;20485;-77
2023/06/25 01:44:54;;;;;;;7.20;2.55;;;;;;;17.58;80.20;92936.00;4769660;30;20093;-76
2023/06/25 01:47:20;;;;;;;4.78;2.50;;;;;;;17.58;79.88;92933.34;4769483;30;20077;-76
2023/06/25 01:49:45;;;;;;;5.35;2.80;;;;;;;17.58;80.63;92932.59;4768646;30;20031;-76
2023/06/25 01:52:11;;;;;;;8.48;2.70;;;;;;;17.58;81.01;92929.94;4769702;30;20052;-76
2023/06/25 01:54:37;;;;;;;5.00;2.70;;;;;;;17.54;81.53;92929.81;4753539;30;20047;-76
2023/06/25 01:57:03;;;;;;;6.00;2.60;;;;;;;17.52;81.11;92928.56;4769185;30;20040;-77
2023/06/25 01:59:28;;;;;;;6.57;2.47;;;;;;;17.51;80.52;92925.13;4753501;30;20227;-77
2023/06/25 02:01:54;;;;;;;5.13;2.55;;;;;;;17.51;80.88;92924.38;4768306;30;20391;-77
2023/06/25 02:04:20;;;;;;;4.63;2.50;;;;;;;17.47;81.53;92925.00;4768110;30;20040;-76
2023/06/25 02:06:46;;;;;;;5.93;2.45;;;;;;;17.45;81.65;92916.63;4753084;30;20052;-77
2023/06/25 02:09:14;;;;;;;4.57;2.40;;;;;;;17.44;81.44;92919.56;4768796;30;20119;-76
2023/06/25 02:11:40;;;;;;;4.75;2.13;;;;;;;17.42;81.87;92916.47;4769802;30;20567;-77
2023/06/25 02:14:06;;;;;;;6.28;2.80;;;;;;;17.38;81.65;92910.25;4769471;30;20035;-77
2023/06/25 02:16:32;;;;;;;4.25;2.50;;;;;;;17.35;81.62;92908.25;4769569;30;20040;-76
2023/06/25 02:18:58;;;;;;;6.88;2.35;;;;;;;17.33;82.02;92902.50;4769295;30;20612;-77
2023/06/25 02:21:24;;;;;;;6.45;2.17;;;;;;;17.29;81.84;92897.03;4769401;30;20047;-77
2023/06/25 02:23:49;;;;;;;4.35;2.33;;;;;;;17.28;82.21;92911.38;4767864;30;20058;-76
2023/06/25 02:26:15;;;;;;;4.70;2.00;;;;;;;17.23;82.38;92907.03;4769603;30;20039;-77
2023/06/25 02:28:40;;;;;;;5.47;2.63;;;;;;;17.21;82.58;92906.59;4753393;30;20556;-77
2023/06/25 02:31:06;;;;;;;4.00;2.25;;;;;;;17.19;83.29;92903.47;4768273;30;20126;-76
2023/06/25 02:33:32;;;;;;;6.10;2.70;;;;;;;17.17;83.14;92900.38;4768191;30;20036;-77
2023/06/25 02:35:57;;;;;;;5.22;2.70;;;;;;;17.18;82.59;92899.28;4769302;30;20118;-76
2023/06/25 02:38:23;;;;;;;8.30;2.53;;;;;;;17.22;82.28;92902.06;4752768;30;20040;-76
2023/06/25 02:40:49;;;;;;;8.20;2.40;;;;;;;17.26;81.44;92893.16;4767865;30;20048;-77
2023/06/25 02:43:14;;;;;;;6.78;2.47;;;;;;;17.25;81.08;92896.91;4768402;30;20048;-77
2023/06/25 02:45:40;;;;;;;5.47;2.80;;;;;;;17.30;80.77;92897.84;4767964;30;20130;-77
2023/06/25 02:48:06;;;;;;;8.68;2.67;;;;;;;17.30;81.45;92903.13;4767971;30;20032;-77
2023/06/25 02:50:32;;;;;;;8.70;2.80;;;;;;;17.27;81.81;92900.03;4768890;30;20495;-77
2023/06/25 02:52:59;;;;;;;6.00;2.80;;;;;;;17.25;83.27;92912.03;4767488;30;20031;-77
2023/06/25 02:55:24;;;;;;;7.28;2.90;;;;;;;17.21;83.68;92911.09;4767702;30;20040;-77
2023/06/25 02:57:50;;;;;;;5.32;2.50;;;;;;;17.15;84.87;92910.47;4768796;30;20112;-76
2023/06/25 03:00:16;;;;;;;5.22;2.55;;;;;;;17.11;85.51;92901.63;4769136;30;20152;-77
2023/06/25 03:02:42;;;;;;;8.98;2.80;;;;;;;17.06;86.34;92896.50;4738326;30;20040;-75
2023/06/25 03:05:08;;;;;;;4.97;2.70;;;;;;;17.01;86.27;92901.97;4752867;30;20066;-76
2023/06/25 03:07:34;;;;;;;7.63;2.83;;;;;;;17.01;85.59;92897.47;4768744;30;20063;-76
2023/06/25 03:10:00;;;;;;;5.85;2.47;;;;;;;17.01;85.67;92909.91;4766911;30;20581;-77
2023/06/25 03:12:26;;;;;;;5.78;2.95;;;;;;;17.02;85.28;92909.59;4752060;30;20032;-76
2023/06/25 03:14:51;;;;;;;7.88;2.90;;;;;;;17.13;84.78;92909.25;4768047;30;20356;-77
2023/06/25 03:17:17;;;;;;;5.32;2.53;;;;;;;17.21;83.94;92909.22;4767000;30;20046;-77
2023/06/25 03:19:42;;;;;;;4.25;2.30;;;;;;;17.25;83.60;92896.16;4770009;30;20098;-77
2023/06/25 03:22:08;;;;;;;5.32;2.55;;;;;;;17.31;83.02;92902.81;4771707;30;20048;-76
2023/06/25 03:24:36;;;;;;;4.70;2.50;;;;;;;17.34;82.71;92899.53;4770138;30;20055;-77
2023/06/25 03:27:03;;;;;;;7.90;2.70;;;;;;;17.39;82.43;92901.22;4770186;30;20266;-77
2023/06/25 03:29:29;;;;;;;7.50;2.50;;;;;;;17.40;82.12;92900.13;4755712;30;20043;-77
2023/06/25 03:31:54;;;;;;;5.13;2.42;;;;;;;17.44;82.24;92908.97;4771577;30;20028;-76
2023/06/25 03:34:24;;;;;;;5.95;2.78;;;;;;;17.43;82.24;92904.78;4755826;30;20562;-77
2023/06/25 03:36:51;;;;;;;6.10;2.50;;;;;;;17.39;82.41;92896.72;4755560;30;20487;-77
2023/06/25 03:39:18;;;;;;;6.35;2.40;;;;;;;17.46;82.45;92906.78;4770511;30;20047;-77
2023/06/25 03:41:44;;;;;;;4.63;2.13;;;;;;;17.45;82.66;92903.38;4770685;30;20031;-77
2023/06/25 03:44:09;;;;;;;5.53;2.50;;;;;;;17.44;82.93;92907.09;4771435;30;20044;-76
2023/06/25 03:46:35;;;;;;;4.90;2.45;;;;;;;17.51;81.91;92901.31;4769827;30;20093;-77
2023/06/25 03:49:01;;;;;;;4.82;2.67;;;;;;;17.51;82.15;92901.31;4769984;30;20565;-77
2023/06/25 03:51:29;;;;;;;5.70;2.40;;;;;;;17.50;82.41;92899.78;4771030;30;20127;-76
2023/06/25 03:53:55;;;;;;;4.28;2.40;;;;;;;17.52;82.95;92896.78;4754860;30;20127;-76
2023/06/25 03:56:21;;;;;;;5.78;2.55;;;;;;;17.48;84.03;92894.03;4770195;30;20039;-77
2023/06/25 03:58:46;;;;;;;6.05;2.50;;;;;;;17.43;83.03;92891.56;4769947;30;20036;-77
2023/06/25 04:01:12;;;;;;;6.72;2.60;;;;;;;17.43;83.63;92889.69;4769782;30;20040;-77
2023/06/25 04:03:38;;;;;;;5.20;2.70;;;;;;;17.42;84.24;92884.72;4771100;30;20383;-76
2023/06/25 04:06:03;;;;;;;7.07;2.30;;;;;;;17.47;83.49;92897.75;4770035;30;20036;-76
2023/06/25 04:08:29;;;;;;;8.70;2.40;;;;;;;17.46;83.84;92886.41;4771001;30;20074;-77
2023/06/25 04:10:55;;;;;;;4.85;2.50;;;;;;;17.48;83.78;92900.09;4755207;30;20055;-77
2023/06/25 04:13:21;;;;;;;7.57;2.40;;;;;;;17.50;82.90;92894.47;4769660;30;20143;-77
2023/06/25 04:15:47;;;;;;;5.68;2.60;;;;;;;17.52;83.57;92894.94;4769782;30;20046;-77
2023/06/25 04:18:13;;;;;;;7.20;2.50;;;;;;;17.50;84.75;92893.72;4754629;30;20055;-77
2023/06/25 04:20:39;;;;;;;4.35;2.17;;;;;;;17.50;83.48;92886.53;4770497;30;20047;-77
2023/06/25 04:23:05;;;;;;;4.68;2.28;;;;;;;17.53;83.95;92887.78;4770620;30;20054;-77
2023/06/25 04:25:32;;;;;;;5.57;2.58;;;;;;;17.53;83.42;92888.53;4769306;30;20038;-77
2023/06/25 04:27:58;;;;;;;5.15;2.33;;;;;;;17.62;82.37;92893.81;4754738;30;20118;-77
2023/06/25 04:30:23;;;;;;;5.10;2.75;;;;;;;17.63;83.40;92888.19;4768493;30;20040;-77
2023/06/25 04:32:50;;;;;;;4.10;2.15;;;;;;;17.65;83.86;92887.84;4769170;30;20063;-76
2023/06/25 04:35:17;;;;;;;4.65;2.20;;;;;;;17.63;84.45;92890.84;4769211;30;20032;-77
2023/06/25 04:37:44;;;;;;;6.20;3.10;;;;;;;17.61;86.23;92893.03;4769210;30;20047;-76
2023/06/25 04:40:12;;;;;;;8.57;2.50;;;;;;;17.61;85.46;92893.03;4768740;30;20495;-76
2023/06/25 04:42:38;;;;;;;8.57;2.40;;;;;;;17.63;85.17;92893.50;4769049;30;20075;-77
2023/06/25 04:45:04;;;;;;;4.55;2.20;;;;;;;17.68;84.14;92900.47;4754291;30;20055;-76
2023/06/25 04:47:31;;;;;;;6.63;2.40;;;;;;;17.73;84.30;92894.97;4769041;30;20402;-77
2023/06/25 04:49:57;;;;;;;5.82;2.70;;;;;;;17.87;82.69;92890.25;4768754;30;20040;-77
2023/06/25 04:52:23;;;;;;;6.28;2.22;;;;;;;17.88;83.13;92899.75;4769020;30;20039;-76
2023/06/25 04:54:49;;;;;;;5.05;2.33;;;;;;;17.94;82.92;92896.91;4770747;30;20036;-77
2023/06/25 04:57:15;;;;;;;4.13;2.03;;;;;;;18.02;82.22;92896.88;4768966;30;20058;-77
2023/06/25 04:59:40;;;;;;;3.38;1.85;;;;;;;18.09;81.27;92891.06;4770432;30;20614;-77
2023/06/25 05:02:06;;;;;;;5.05;2.22;;;;;;;18.12;81.38;92894.94;4769145;30;20040;-77
2023/06/25 05:04:32;;;;;;;3.85;1.90;;;;;;;18.18;80.71;92898.94;4769541;30;20499;-76
2023/06/25 05:06:57;;;;;;;3.60;1.90;;;;;;;18.21;80.24;92904.34;4769887;30;20126;-77
2023/06/25 05:09:24;;;;;;;3.90;1.90;;;;;;;18.32;78.89;92899.44;4769540;30;20467;-77
2023/06/25 05:11:49;;;;;;;4.25;1.83;;;;;;;18.35;78.89;92898.81;4769757;30;20118;-77
2023/06/25 05:14:15;;;;;;;3.72;1.85;;;;;;;18.36;78.59;92900.34;4769589;30;20032;-76
2023/06/25 05:16:40;;;;;;;6.82;2.10;;;;;;;18.41;78.68;92907.34;4768776;30;20040;-77
2023/06/25 05:19:06;;;;;;;2.90;1.60;;;;;;;18.47;78.50;92898.88;4767208;30;20777;-76
2023/06/25 05:21:31;;;;;;;3.60;1.70;;;;;;;18.52;78.25;92897.88;4767094;30;20527;-77
2023/06/25 05:23:59;;;;;;;3.80;1.77;;;;;;;18.59;78.21;92900.78;4768429;30;20436;-76
2023/06/25 05:26:26;;;;;;;4.47;1.90;;;;;;;18.67;78.65;92893.88;4768359;30;20457;-77
2023/06/25 05:28:51;;;;;;;2.97;1.60;;;;;;;18.75;78.39;92905.50;4768358;30;20498;-76
2023/06/25 05:31:17;;;;;;;4.50;1.95;;;;;;;18.80;78.02;92894.69;4768156;30;20133;-76
2023/06/25 05:33:42;;;;;;;4.18;1.85;;;;;;;18.89;77.56;92898.03;4768216;30;20340;-77
2023/06/25 05:36:08;;;;;;;3.15;1.75;;;;;;;19.27;74.53;92897.81;4768032;30;20052;-77
2023/06/25 05:38:34;;;;;;;4.15;1.92;;;;;;;19.21;75.41;92901.78;4768254;30;20118;-77
2023/06/25 05:40:59;;;;;;;5.00;2.60;;;;;;;19.26;80.95;92896.25;4768197;30;20126;-76
2023/06/25 05:43:25;;;;;;;3.63;1.83;;;;;;;19.36;77.39;92895.03;4768571;30;20032;-76
2023/06/25 05:45:50;;;;;;;3.92;1.80;;;;;;;19.71;73.18;92898.06;4768443;30;20028;-77
2023/06/25 05:48:16;;;;;;;3.72;1.80;;;;;;;20.62;68.51;92906.78;4766918;30;20402;-76
2023/06/25 05:50:42;;;;;;;3.33;1.70;;;;;;;21.11;66.28;92903.91;4768364;30;20048;-77
2023/06/25 05:53:07;;;;;;;7.63;1.70;;;;;;;21.75;63.20;92910.84;4768244;30;20051;-77
2023/06/25 05:55:33;;;;;;;3.35;1.90;;;;;;;22.12;61.54;92902.50;4768390;30;20482;-77
2023/06/25 05:57:59;;;;;;;4.07;2.00;;;;;;;22.73;60.14;92905.69;4767100;30;20036;-77
2023/06/25 06:00:24;;;;;;;3.65;2.00;;;;;;;22.96;59.10;92909.16;4768740;30;20491;-77
2023/06/25 06:02:50;;;;;;;3.85;2.08;;;;;;;23.52;57.49;92907.88;4768914;30;20032;-78
2023/06/25 06:05:15;;;;;;;4.10;1.98;;;;;;;23.93;55.26;92910.09;4768585;30;20043;-77
2023/06/25 06:07:41;;;;;;;7.82;1.90;;;;;;;24.36;52.26;92913.34;4752513;30;20058;-77
2023/06/25 06:10:07;;;;;;;4.35;1.90;;;;;;;24.78;49.39;92915.06;4767460;30;20126;-78
2023/06/25 06:12:32;;;;;;;3.75;1.80;;;;;;;24.72;49.29;92918.06;4768910;30;20070;-77
2023/06/25 06:14:58;;;;;;;5.68;1.80;;;;;;;25.22;48.58;92914.41;4767671;30;20047;-77
2023/06/25 06:17:23;;;;;;;7.18;2.00;;;;;;;25.53;47.79;92924.69;4767081;30;20563;-76
2023/06/25 06:19:49;;;;;;;6.75;2.10;;;;;;;25.05;50.81;92923.78;4767867;30;20044;-77
2023/06/25 06:22:16;;;;;;;4.15;1.58;;;;;;;25.02;48.81;92919.94;4768247;30;20039;-77
2023/06/25 06:24:42;;;;;;;5.72;2.15;;;;;;;25.23;49.77;92926.69;4769873;30;20067;-76
2023/06/25 06:27:08;;;;;;;2.80;1.75;;;;;;;25.43;48.05;92925.34;4769585;30;20121;-77
2023/06/25 06:29:33;;;;;;;4.25;2.00;;;;;;;25.49;48.58;92923.88;4770497;30;20039;-77
2023/06/25 06:31:59;;;;;;;3.83;1.85;;;;;;;25.50;48.66;92922.72;4767710;30;20392;-77
2023/06/25 06:34:25;;;;;;;7.28;2.33;;;;;;;25.42;49.64;92931.06;4769376;30;20533;-77
2023/06/25 06:36:50;;;;;;;5.90;2.28;;;;;;;25.23;50.31;92924.00;4769747;30;20031;-78
2023/06/25 06:39:17;;;;;;;3.72;2.17;;;;;;;25.21;50.78;92923.59;4769201;30;20415;-77
2023/06/25 06:41:42;;;;;;;6.22;2.80;;;;;;;25.01;54.42;92934.44;4769213;30;20424;-77
2023/06/25 06:44:16;;;;;;;5.05;2.40;;;;;;;24.78;53.06;92926.53;4767882;30;20051;-77
2023/06/25 06:46:42;;;;;;;4.15;2.28;;;;;;;24.60;52.49;92929.00;4771265;30;20119;-77
2023/06/25 06:49:09;;;;;;;5.90;2.40;;;;;;;24.46;54.85;92923.44;4770563;30;20040;-77
2023/06/25 06:51:35;;;;;;;6.28;2.30;;;;;;;24.57;54.06;92918.25;4770490;30;20051;-77
2023/06/25 06:54:01;;;;;;;4.57;2.30;;;;;;;24.70;52.90;92919.53;4769879;30;20119;-76
2023/06/25 06:56:26;;;;;;;6.65;2.17;;;;;;;24.73;52.05;92919.59;4771131;30;20155;-77
2023/06/25 06:58:52;;;;;;;4.30;2.28;;;;;;;24.81;52.51;92922.34;4772486;30;20510;-77
2023/06/25 07:01:17;;;;;;;3.50;2.00;;;;;;;24.72;51.34;92928.00;4772752;30;20048;-78
2023/06/25 07:03:43;;;;;;;4.93;1.90;;;;;;;24.68;52.16;92927.19;4772679;30;20051;-80
2023/06/25 07:06:09;;;;;;;3.47;1.90;;;;;;;24.44;52.13;92923.03;4771043;30;20503;-77
2023/06/25 07:08:34;;;;;;;3.75;1.95;;;;;;;24.44;52.92;92923.03;4771101;30;20127;-77
2023/06/25 07:11:00;;;;;;;6.18;3.28;;;;;;;24.45;56.12;92921.88;4772222;30;20047;-77
2023/06/25 07:13:26;;;;;;;4.38;2.42;;;;;;;24.27;55.02;92919.75;4772897;30;20094;-77
2023/06/25 07:15:52;;;;;;;9.35;2.38;;;;;;;23.98;56.54;92920.47;4771963;30;20042;-77
2023/06/25 07:18:18;;;;;;;7.35;4.35;;;;;;;23.87;62.39;92914.97;4771141;30;20044;-77
2023/06/25 07:20:43;;;;;;;6.40;3.75;;;;;;;23.63;63.98;92918.75;4771418;30;20048;-78
2023/06/25 07:23:09;;;;;;;8.45;3.85;;;;;;;23.64;64.98;92920.28;4771601;30;20054;-77
2023/06/25 07:25:35;;;;;;;9.40;3.67;;;;;;;23.55;64.38;92912.50;4756507;30;20079;-77
2023/06/25 07:28:01;;;;;;;4.95;2.30;;;;;;;23.85;58.95;92909.97;4771927;30;20040;-77
2023/06/25 07:30:27;;;;;;;5.75;3.47;;;;;;;23.97;61.38;92916.25;4772550;30;20090;-78
2023/06/25 07:32:52;;;;;;;4.38;2.60;;;;;;;23.85;57.90;92909.97;4771870;30;20059;-77
2023/06/25 07:35:18;;;;;;;4.97;2.50;;;;;;;23.76;58.08;92912.13;4770376;30;20035;-77
2023/06/25 07:37:43;;;;;;;7.07;2.88;;;;;;;24.12;58.90;92918.00;4755594;30;20395;-78
2023/06/25 07:40:09;;;;;;;3.90;2.30;;;;;;;24.31;54.89;92909.84;4755848;30;20044;-77
2023/06/25 07:42:35;;;;;;;5.72;2.90;;;;;;;24.33;55.84;92911.41;4770464;30;20047;-77
2023/06/25 07:45:00;;;;;;;4.03;2.33;;;;;;;24.49;56.07;92907.44;4771393;30;20043;-77
2023/06/25 07:47:26;;;;;;;4.32;2.50;;;;;;;24.55;56.21;92912.50;4771592;30;20127;-76
2023/06/25 07:49:52;;;;;;;3.78;2.20;;;;;;;24.51;54.10;92907.84;4755821;30;20050;-78
2023/06/25 07:52:17;;;;;;;7.00;3.70;;;;;;;24.33;58.64;92908.75;4756222;30;20044;-77
2023/06/25 07:54:43;;;;;;;6.47;3.15;;;;;;;24.31;58.84;92899.16;4771762;30;20122;-77
2023/06/25 07:57:09;;;;;;;6.38;3.50;;;;;;;24.00;62.59;92902.16;4771780;30;20043;-76
2023/06/25 07:59:34;;;;;;;4.97;2.40;;;;;;;23.98;58.39;92905.22;4756481;30;20039;-78
2023/06/25 08:02:00;;;;;;;6.85;2.55;;;;;;;23.99;57.15;92905.97;4771493;30;20584;-77
2023/06/25 08:04:26;;;;;;;5.20;2.78;;;;;;;23.95;60.42;92900.56;4755223;30;20039;-78
2023/06/25 08:06:51;;;;;;;5.78;2.95;;;;;;;23.55;60.09;92901.81;4769203;30;20243;-77
2023/06/25 08:09:17;;;;;;;4.68;2.80;;;;;;;23.48;60.90;92897.16;4772542;30;20093;-77
2023/06/25 08:11:43;;;;;;;4.50;2.10;;;;;;;23.69;55.22;92898.63;4770589;30;20630;-77
2023/06/25 08:14:08;;;;;;;4.40;2.33;;;;;;;23.85;54.84;92901.97;4771411;30;20055;-77
2023/06/25 08:16:34;;;;;;;4.50;2.20;;;;;;;23.95;57.03;92903.25;4771000;30;20067;-77
2023/06/25 08:19:00;;;;;;;3.78;2.28;;;;;;;24.10;57.50;92896.22;4754982;30;20086;-77
2023/06/25 08:21:26;;;;;;;3.25;1.95;;;;;;;24.01;54.31;92885.75;4771381;30;20058;-78
2023/06/25 08:23:52;;;;;;;5.80;2.35;;;;;;;23.99;57.33;92887.25;4771380;30;20074;-77
2023/06/25 08:26:18;;;;;;;5.45;2.17;;;;;;;23.78;58.39;92893.84;4771176;30;20051;-77
2023/06/25 08:28:43;;;;;;;3.78;2.20;;;;;;;23.84;59.46;92889.72;4771351;30;20048;-76
2023/06/25 08:31:10;;;;;;;4.93;2.40;;;;;;;23.93;60.19;92888.69;4771526;30;20043;-76
2023/06/25 08:33:39;;;;;;;4.10;2.40;;;;;;;23.57;59.97;92888.13;4773014;30;20036;-78
2023/06/25 08:36:05;;;;;;;5.13;2.22;;;;;;;23.54;60.86;92886.16;4771578;30;20199;-77
2023/06/25 08:38:32;;;;;;;3.90;2.08;;;;;;;23.39;57.50;92895.84;4771204;30;20526;-78
2023/06/25 08:40:58;;;;;;;5.00;1.98;;;;;;;23.36;60.02;92891.22;4772275;30;20190;-78
2023/06/25 08:43:24;;;;;;;3.42;1.90;;;;;;;23.48;60.61;92885.69;4771960;30;20519;-77
2023/06/25 08:45:49;;;;;;;5.03;2.22;;;;;;;22.99;58.60;92894.34;4772228;30;20040;-78
2023/06/25 08:48:16;;;;;;;3.83;2.03;;;;;;;23.28;58.11;92884.97;4774113;30;20078;-78
2023/06/25 08:50:49;;;;;;;4.63;2.20;;;;;;;23.30;58.71;92888.06;4772622;30;20499;-77
2023/06/25 08:53:15;;;;;;;3.65;1.75;;;;;;;23.55;60.53;92877.00;4773103;30;20047;-77
2023/06/25 08:55:41;;;;;;;5.25;2.15;;;;;;;23.70;61.01;92878.78;4773333;30;20040;-78
2023/06/25 08:58:07;;;;;;;6.82;1.88;;;;;;;23.44;57.67;92885.63;4773686;30;20553;-77
2023/06/25 09:00:32;;;;;;;4.35;1.95;;;;;;;23.63;58.31;92886.69;4771868;30;20031;-76
2023/06/25 09:02:58;;;;;;;4.65;1.92;;;;;;;23.47;57.88;92887.59;4755014;30;20040;-78
2023/06/25 09:05:26;;;;;;;3.85;2.13;;;;;;;23.40;58.75;92890.16;4770947;30;20047;-77
2023/06/25 09:07:52;;;;;;;4.15;2.05;;;;;;;23.68;59.77;92894.41;4770537;30;20047;-77
2023/06/25 09:10:19;;;;;;;3.65;1.88;;;;;;;23.86;56.96;92890.13;4770389;30;20228;-78
2023/06/25 09:12:47;;;;;;;4.38;2.03;;;;;;;23.87;57.36;92889.00;4768812;30;20044;-77
2023/06/25 09:15:17;;;;;;;3.33;1.90;;;;;;;24.06;57.45;92884.69;4769175;30;20039;-78
2023/06/25 09:17:43;;;;;;;3.42;2.00;;;;;;;24.13;57.38;92882.09;4769867;30;20097;-77
2023/06/25 09:20:09;;;;;;;6.30;2.13;;;;;;;23.80;58.82;92880.09;4769273;30;20047;-77
2023/06/25 09:22:48;;;;;;;5.55;1.80;;;;;;;23.98;56.86;92880.34;4770268;30;20085;-77
2023/06/25 09:25:14;;;;;;;4.25;2.08;;;;;;;23.79;57.68;92882.00;4770135;30;20070;-77
2023/06/25 09:27:39;;;;;;;2.97;1.70;;;;;;;23.76;58.28;92873.94;4770295;30;20083;-77
2023/06/25 09:30:09;;;;;;;5.65;2.00;;;;;;;23.72;57.59;92884.53;4770720;30;20036;-77
2023/06/25 09:32:34;;;;;;;5.43;1.70;;;;;;;23.53;57.73;92882.72;4771437;30;20031;-78
2023/06/25 09:35:03;;;;;;;3.72;2.03;;;;;;;23.69;58.99;92877.25;4769748;30;20046;-78
2023/06/25 09:37:28;;;;;;;3.85;2.00;;;;;;;23.65;56.07;92895.13;4754354;30;20044;-78
2023/06/25 09:39:54;;;;;;;3.35;1.83;;;;;;;23.81;58.37;92879.75;4769786;30;20050;-76
2023/06/25 09:42:20;;;;;;;3.58;1.90;;;;;;;23.64;56.19;92877.53;4768788;30;20414;-77
2023/06/25 09:44:50;;;;;;;5.78;2.00;;;;;;;23.75;56.88;92878.50;4768386;30;20043;-77
2023/06/25 09:47:19;;;;;;;6.72;2.00;;;;;;;23.83;56.62;92880.16;4753835;30;20113;-78
2023/06/25 09:49:44;;;;;;;4.13;2.00;;;;;;;23.72;57.23;92870.41;4770081;30;20042;-77
2023/06/25 09:52:15;;;;;;;4.57;2.22;;;;;;;23.61;54.60;92870.25;4769398;30;20122;-77
2023/06/25 09:54:41;;;;;;;3.75;2.00;;;;;;;23.79;58.45;92863.28;4769256;30;20542;-77
2023/06/25 09:57:09;;;;;;;3.55;1.90;;;;;;;24.14;57.41;92858.81;4768610;30;20499;-77
2023/06/25 09:59:36;;;;;;;3.67;2.03;;;;;;;23.88;55.54;92858.47;4770528;30;20054;-77
2023/06/25 10:02:04;;;;;;;3.75;2.08;;;;;;;23.75;56.03;92869.72;4768814;30;20043;-77
2023/06/25 10:04:32;;;;;;;4.00;2.20;;;;;;;23.82;57.06;92865.25;4754031;30;20078;-77
2023/06/25 10:06:58;;;;;;;5.47;2.22;;;;;;;23.78;56.92;92864.44;4770261;30;20477;-77
2023/06/25 10:09:24;;;;;;;6.45;2.08;;;;;;;23.89;59.75;92856.56;4768705;30;20499;-77
2023/06/25 10:11:56;;;;;;;3.65;2.10;;;;;;;24.17;59.63;92860.78;4753899;30;20059;-78
2023/06/25 10:14:22;;;;;;;5.65;2.30;;;;;;;24.26;55.80;92864.72;4769576;30;20074;-77
2023/06/25 10:16:56;;;;;;;4.13;2.13;;;;;;;24.13;55.14;92858.03;4768557;30;20039;-77
2023/06/25 10:19:27;;;;;;;4.88;2.15;;;;;;;24.10;58.00;92862.22;4768322;30;20551;-78
2023/06/25 10:22:00;;;;;;;7.50;2.20;;;;;;;24.08;57.26;92856.44;4770584;30;20105;-78
2023/06/25 10:24:36;;;;;;;4.75;2.33;;;;;;;24.16;58.45;92854.66;4769576;30;20110;-77
2023/06/25 10:27:01;;;;;;;3.67;2.20;;;;;;;23.83;56.87;92856.09;4770398;30;20109;-78
2023/06/25 10:29:38;;;;;;;4.55;2.30;;;;;;;23.87;57.65;92846.25;4771237;30;20032;-77
2023/06/25 10:32:05;;;;;;;4.47;2.22;;;;;;;24.07;56.93;92851.44;4772991;30;20412;-77
2023/06/25 10:34:35;;;;;;;5.10;2.17;;;;;;;23.97;57.67;92846.75;4756581;30;20167;-77
2023/06/25 10:37:04;;;;;;;4.40;2.40;;;;;;;23.92;58.47;92844.38;4773226;30;20040;-77
2023/06/25 10:39:40;;;;;;;4.40;2.55;;;;;;;24.42;59.47;92845.78;4771271;30;20051;-77
2023/06/25 10:42:07;;;;;;;4.22;2.50;;;;;;;24.63;58.75;92841.84;4772719;30;20035;-77
2023/06/25 10:44:33;;;;;;;5.20;2.65;;;;;;;24.33;55.67;92831.16;4772750;30;20068;-77
2023/06/25 10:47:09;;;;;;;4.80;2.58;;;;;;;23.95;56.99;92835.63;4771629;30;20052;-77
2023/06/25 10:49:36;;;;;;;5.22;2.47;;;;;;;24.06;57.34;92839.22;4772329;30;20043;-77
2023/06/25 10:52:03;;;;;;;5.00;2.50;;;;;;;24.18;55.72;92825.63;4771233;30;20418;-77
2023/06/25 10:54:30;;;;;;;4.15;2.50;;;;;;;24.34;55.60;92838.03;4772721;30;20084;-78
2023/06/25 10:57:09;;;;;;;6.45;2.90;;;;;;;24.34;52.57;92832.69;4771447;30;20053;-78
2023/06/25 10:59:36;;;;;;;3.72;2.22;;;;;;;24.41;54.21;92832.78;4771345;30;20043;-78
2023/06/25 11:02:21;;;;;;;5.75;2.60;;;;;;;24.53;55.77;92829.91;4772978;30;20035;-78
2023/06/25 11:04:51;;;;;;;4.13;2.50;;;;;;;24.48;54.17;92827.56;4772792;30;20109;-77
2023/06/25 11:07:19;;;;;;;6.35;2.70;;;;;;;24.55;55.75;92821.53;4772575;30;20060;-77
2023/06/25 11:09:46;;;;;;;4.05;2.30;;;;;;;24.48;57.11;92822.22;4772193;30;20051;-77
2023/06/25 11:12:11;;;;;;;3.88;2.10;;;;;;;24.37;57.24;92821.28;4771203;30;20089;-77
2023/06/25 11:14:37;;;;;;;4.57;2.80;;;;;;;24.56;56.40;92818.47;4771195;30;20036;-78
2023/06/25 11:17:02;;;;;;;4.45;2.58;;;;;;;24.65;55.35;92823.53;4772361;30;20087;-78
2023/06/25 11:19:31;;;;;;;5.00;2.45;;;;;;;24.62;54.63;92808.22;4770902;30;20062;-77
2023/06/25 11:21:57;;;;;;;4.47;2.30;;;;;;;24.31;56.52;92810.88;4756359;30;20134;-76
2023/06/25 11:24:23;;;;;;;4.10;2.30;;;;;;;24.00;57.25;92809.38;4770935;30;20134;-77
2023/06/25 11:26:56;;;;;;;3.80;2.30;;;;;;;23.54;60.51;92808.69;4770894;30;20050;-78
2023/06/25 11:29:21;;;;;;;5.75;2.50;;;;;;;23.65;59.08;92812.28;4771964;30;20063;-77
2023/06/25 11:31:52;;;;;;;3.78;2.30;;;;;;;23.86;59.72;92803.81;4770739;30;20060;-78